Time;durP1;ratioP1;P1;durP2;ratioP2;P2;SDS_P1;SDS_P2;PMS_P1;PMS_P2;Temp;Humidity;BMP_temperature;BMP_pressure;BME280_temperature;BME280_humidity;BME280_pressure;Samples;Min_cycle;Max_cycle;Signal;HPM_P1;HPM_P2
2022/05/12 00:01:54;;;;;;;0.40;0.40;;;23.30;47.50;;;;;;5110995;28;20384;-69
2022/05/12 00:04:21;;;;;;;0.40;0.20;;;23.20;47.50;;;;;;5110366;28;20432;-70
2022/05/12 00:06:46;;;;;;;0.40;0.30;;;23.20;47.60;;;;;;5111249;28;20432;-69
2022/05/12 00:09:12;;;;;;;0.40;0.20;;;23.20;47.60;;;;;;5092049;28;20441;-69
2022/05/12 00:11:38;;;;;;;0.40;0.22;;;23.20;47.50;;;;;;5098495;28;20381;-69
2022/05/12 00:14:04;;;;;;;0.40;0.30;;;23.20;47.40;;;;;;5109356;28;20487;-69
2022/05/12 00:16:29;;;;;;;0.40;0.30;;;23.20;47.50;;;;;;5110673;28;20798;-69
2022/05/12 00:18:55;;;;;;;0.40;0.30;;;23.10;47.50;;;;;;5097426;28;20399;-69
2022/05/12 00:21:21;;;;;;;0.40;0.30;;;23.10;47.60;;;;;;5094658;28;20399;-69
2022/05/12 00:23:56;;;;;;;0.90;0.80;;;23.10;47.80;;;;;;5110827;28;20451;-69
2022/05/12 00:26:23;;;;;;;0.40;0.20;;;23.10;47.60;;;;;;5110138;28;20376;-70
2022/05/12 00:28:50;;;;;;;1.60;0.90;;;23.10;47.90;;;;;;5108604;28;20404;-70
2022/05/12 00:31:15;;;;;;;0.40;0.30;;;23.10;48.10;;;;;;5091262;28;20392;-70
2022/05/12 00:33:41;;;;;;;0.40;0.30;;;23.00;48.10;;;;;;5100469;28;20442;-68
2022/05/12 00:36:07;;;;;;;0.80;0.70;;;23.00;48.00;;;;;;5110199;28;20381;-72
2022/05/12 00:38:33;;;;;;;0.40;0.30;;;23.00;48.10;;;;;;5110609;28;20406;-71
2022/05/12 00:40:59;;;;;;;0.40;0.30;;;22.90;48.30;;;;;;5108783;28;20459;-69
2022/05/12 00:43:47;;;;;;;0.40;0.20;;;23.00;48.10;;;;;;5089508;28;20424;-70
2022/05/12 00:46:15;;;;;;;0.40;0.20;;;22.80;48.50;;;;;;5089587;28;20378;-71
2022/05/12 00:48:41;;;;;;;0.40;0.20;;;22.80;48.50;;;;;;5090390;28;20406;-71
2022/05/12 00:51:10;;;;;;;0.50;0.40;;;22.70;49.00;;;;;;5089611;28;20493;-72
2022/05/12 00:53:37;;;;;;;0.40;0.30;;;22.60;49.10;;;;;;5090458;28;20410;-73
2022/05/12 00:56:06;;;;;;;0.40;0.30;;;22.70;48.90;;;;;;5090344;28;20384;-70
2022/05/12 00:58:33;;;;;;;0.40;0.25;;;22.60;49.30;;;;;;5089939;28;20378;-69
2022/05/12 01:01:03;;;;;;;0.40;0.40;;;22.60;49.60;;;;;;5093649;28;20401;-71
2022/05/12 01:03:30;;;;;;;0.40;0.30;;;22.60;49.50;;;;;;5093630;28;20469;-71
2022/05/12 01:05:56;;;;;;;0.40;0.30;;;22.50;49.80;;;;;;5059675;28;20439;-70
2022/05/12 01:08:23;;;;;;;0.40;0.40;;;22.50;49.80;;;;;;5093624;28;20472;-70
2022/05/12 01:10:56;;;;;;;0.40;0.30;;;22.50;50.00;;;;;;5094075;28;20377;-70
2022/05/12 01:13:22;;;;;;;0.40;0.25;;;22.50;50.00;;;;;;5093640;28;20523;-70
2022/05/12 01:15:51;;;;;;;0.40;0.25;;;22.40;50.20;;;;;;5093834;28;20806;-69
2022/05/12 01:18:18;;;;;;;0.40;0.20;;;22.40;50.40;;;;;;5093365;28;20474;-71
2022/05/12 01:20:45;;;;;;;0.70;0.65;;;22.40;50.50;;;;;;5093967;28;20861;-70
2022/05/12 01:23:26;;;;;;;0.40;0.40;;;22.40;50.70;;;;;;5092681;28;20386;-71
2022/05/12 01:26:04;;;;;;;0.40;0.20;;;22.30;50.90;;;;;;5093550;28;20450;-70
2022/05/12 01:28:31;;;;;;;0.40;0.30;;;22.30;50.80;;;;;;5093148;28;20488;-70
2022/05/12 01:30:57;;;;;;;0.60;0.60;;;22.30;51.40;;;;;;5093548;28;20435;-70
2022/05/12 01:33:23;;;;;;;0.40;0.27;;;22.20;51.30;;;;;;5075040;28;20527;-69
2022/05/12 01:35:49;;;;;;;0.40;0.30;;;22.20;51.20;;;;;;5093810;28;20894;-70
2022/05/12 01:38:15;;;;;;;0.40;0.30;;;22.20;51.50;;;;;;5092733;28;20386;-72
2022/05/12 01:40:43;;;;;;;0.40;0.20;;;22.20;51.70;;;;;;5093625;28;20728;-70
2022/05/12 01:43:11;;;;;;;0.40;0.30;;;22.10;52.10;;;;;;5093179;28;20728;-71
2022/05/12 01:45:36;;;;;;;0.40;0.20;;;22.10;52.10;;;;;;5093015;28;20398;-69
2022/05/12 01:48:03;;;;;;;0.40;0.30;;;22.10;52.20;;;;;;5093504;28;20410;-71
2022/05/12 01:50:29;;;;;;;0.40;0.40;;;22.00;52.20;;;;;;5092555;28;20382;-69
2022/05/12 01:52:55;;;;;;;0.40;0.20;;;22.00;52.50;;;;;;5093522;28;20374;-70
2022/05/12 01:55:23;;;;;;;0.40;0.30;;;22.00;52.60;;;;;;5092754;28;20386;-70
2022/05/12 01:57:49;;;;;;;0.40;0.30;;;21.90;52.80;;;;;;5093275;28;20386;-68
2022/05/12 02:00:24;;;;;;;0.40;0.30;;;21.90;53.00;;;;;;5092925;28;20892;-68
2022/05/12 02:02:50;;;;;;;0.40;0.20;;;21.90;53.20;;;;;;5093291;28;20439;-70
2022/05/12 02:05:17;;;;;;;0.40;0.20;;;21.80;53.20;;;;;;5092262;28;20870;-70
2022/05/12 02:07:45;;;;;;;1.70;0.70;;;21.80;53.30;;;;;;5093093;28;20935;-69
2022/05/12 02:10:21;;;;;;;0.50;0.50;;;21.80;53.50;;;;;;5092584;28;20436;-71
2022/05/12 02:12:47;;;;;;;0.40;0.20;;;21.80;53.50;;;;;;5093474;28;20390;-70
2022/05/12 02:15:13;;;;;;;0.40;0.30;;;21.80;53.80;;;;;;5092110;28;20413;-71
2022/05/12 02:17:39;;;;;;;0.40;0.20;;;21.70;54.00;;;;;;5093541;28;20714;-71
2022/05/12 02:20:06;;;;;;;0.57;0.57;;;21.70;54.60;;;;;;5092781;28;20393;-69
2022/05/12 02:22:32;;;;;;;0.40;0.30;;;21.60;54.30;;;;;;5091626;28;20817;-70
2022/05/12 02:24:58;;;;;;;0.47;0.30;;;21.60;54.70;;;;;;5092788;28;20424;-70
2022/05/12 02:27:23;;;;;;;0.40;0.20;;;21.50;54.90;;;;;;5092218;28;20409;-70
2022/05/12 02:29:49;;;;;;;0.40;0.20;;;21.50;55.10;;;;;;5092971;28;20406;-69
2022/05/12 02:32:15;;;;;;;0.40;0.30;;;21.50;55.10;;;;;;5091719;28;20390;-70
2022/05/12 02:34:41;;;;;;;0.40;0.23;;;21.40;55.40;;;;;;5092561;28;20491;-70
2022/05/12 02:37:08;;;;;;;0.50;0.40;;;21.30;55.50;;;;;;5092575;28;20397;-70
2022/05/12 02:39:40;;;;;;;0.40;0.22;;;21.40;55.80;;;;;;5091708;28;20370;-69
2022/05/12 02:42:08;;;;;;;0.40;0.30;;;21.30;55.80;;;;;;5092192;28;20397;-68
2022/05/12 02:44:34;;;;;;;0.40;0.20;;;21.20;56.20;;;;;;5090851;28;21023;-70
2022/05/12 02:47:01;;;;;;;0.40;0.38;;;21.20;56.20;;;;;;5092041;28;20417;-68
2022/05/12 02:49:26;;;;;;;0.60;0.40;;;21.20;56.60;;;;;;5091550;28;20387;-70
2022/05/12 02:51:53;;;;;;;0.40;0.30;;;21.10;56.50;;;;;;5091954;28;20802;-68
2022/05/12 02:54:19;;;;;;;0.40;0.20;;;21.10;56.60;;;;;;5091215;28;20781;-70
2022/05/12 02:56:47;;;;;;;0.40;0.25;;;21.10;56.60;;;;;;5092331;28;20400;-71
2022/05/12 02:59:13;;;;;;;0.40;0.20;;;21.10;57.00;;;;;;5091665;28;20401;-71
2022/05/12 03:01:39;;;;;;;0.40;0.40;;;21.10;57.10;;;;;;5091509;28;20386;-72
2022/05/12 03:04:05;;;;;;;0.40;0.25;;;21.00;57.20;;;;;;5091819;28;20393;-70
2022/05/12 03:06:31;;;;;;;0.40;0.30;;;21.00;57.40;;;;;;5091094;28;20397;-71
2022/05/12 03:08:58;;;;;;;0.40;0.20;;;21.00;57.50;;;;;;5091756;28;20505;-68
2022/05/12 03:11:24;;;;;;;0.70;0.70;;;20.90;57.60;;;;;;5091203;28;20382;-71
2022/05/12 03:13:51;;;;;;;1.00;0.80;;;20.90;58.30;;;;;;5091377;28;20806;-70
2022/05/12 03:16:18;;;;;;;0.40;0.20;;;20.90;58.10;;;;;;5091162;28;20469;-70
2022/05/12 03:18:46;;;;;;;0.40;0.20;;;20.90;58.00;;;;;;5091597;28;20864;-71
2022/05/12 03:21:14;;;;;;;0.40;0.20;;;20.90;57.80;;;;;;5091475;28;20450;-70
2022/05/12 03:23:40;;;;;;;0.40;0.30;;;20.90;58.10;;;;;;5072163;28;20402;-70
2022/05/12 03:26:07;;;;;;;0.40;0.20;;;20.90;58.30;;;;;;5091683;28;20667;-69
2022/05/12 03:28:33;;;;;;;0.40;0.30;;;20.90;58.10;;;;;;5090515;28;20413;-67
2022/05/12 03:30:59;;;;;;;0.40;0.30;;;20.90;57.90;;;;;;5091275;28;20451;-70
2022/05/12 03:33:25;;;;;;;0.40;0.30;;;20.90;57.90;;;;;;5070825;28;20369;-69
2022/05/12 03:35:50;;;;;;;0.40;0.20;;;20.90;57.90;;;;;;5083461;28;20392;-69
2022/05/12 03:38:17;;;;;;;0.40;0.20;;;20.80;57.80;;;;;;5091279;28;20386;-71
2022/05/12 03:40:43;;;;;;;0.40;0.30;;;20.80;58.30;;;;;;5091082;28;20390;-70
2022/05/12 03:43:08;;;;;;;0.40;0.20;;;20.70;58.20;;;;;;5091585;28;20409;-70
2022/05/12 03:45:34;;;;;;;0.50;0.40;;;20.70;58.50;;;;;;5090553;28;20421;-70
2022/05/12 03:48:00;;;;;;;0.40;0.20;;;20.70;58.40;;;;;;5091191;28;20409;-72
2022/05/12 03:50:28;;;;;;;0.40;0.30;;;20.70;58.30;;;;;;5090715;28;20866;-69
2022/05/12 03:52:55;;;;;;;0.40;0.30;;;20.60;58.20;;;;;;5090983;28;20416;-69
2022/05/12 03:55:24;;;;;;;0.40;0.30;;;20.60;58.20;;;;;;5089905;28;20766;-71
2022/05/12 03:57:53;;;;;;;0.40;0.20;;;20.70;58.30;;;;;;5091468;28;20850;-71
2022/05/12 04:00:24;;;;;;;0.40;0.20;;;20.60;58.30;;;;;;5090386;28;20862;-68
2022/05/12 04:02:49;;;;;;;0.40;0.30;;;20.60;58.20;;;;;;5090970;28;20386;-70
2022/05/12 04:05:15;;;;;;;0.40;0.40;;;20.50;58.40;;;;;;5091006;28;20712;-69
2022/05/12 04:07:43;;;;;;;0.40;0.20;;;20.50;58.90;;;;;;5090028;28;20428;-70
2022/05/12 04:10:10;;;;;;;0.40;0.20;;;20.50;58.30;;;;;;5090658;28;20480;-70
2022/05/12 04:12:36;;;;;;;0.40;0.30;;;20.40;58.40;;;;;;5089891;28;20390;-70
2022/05/12 04:15:03;;;;;;;0.80;0.70;;;20.40;58.40;;;;;;5090631;28;20401;-70
2022/05/12 04:17:29;;;;;;;0.40;0.30;;;20.40;58.60;;;;;;5090088;28;20873;-70
2022/05/12 04:19:55;;;;;;;0.40;0.30;;;20.30;58.60;;;;;;5090755;28;20390;-70
2022/05/12 04:22:21;;;;;;;1.30;0.70;;;20.30;59.10;;;;;;5090195;28;20784;-69
2022/05/12 04:24:47;;;;;;;0.80;0.70;;;20.20;58.90;;;;;;5090397;28;20402;-69
2022/05/12 04:27:13;;;;;;;0.40;0.30;;;20.20;58.90;;;;;;5090997;28;20374;-70
2022/05/12 04:29:43;;;;;;;0.40;0.20;;;20.10;59.30;;;;;;5071846;28;20941;-71
2022/05/12 04:32:09;;;;;;;0.40;0.30;;;20.10;59.30;;;;;;5090587;28;20473;-68
2022/05/12 04:37:29;;;;;;;0.40;0.30;;;20.10;59.50;;;;;;5089544;28;20927;-70
2022/05/12 04:40:02;;;;;;;0.40;0.20;;;20.10;59.70;;;;;;5087300;28;20479;-71
2022/05/12 04:42:28;;;;;;;0.40;0.20;;;20.10;59.70;;;;;;5082005;28;20390;-69
2022/05/12 04:44:53;;;;;;;0.40;0.20;;;20.10;59.70;;;;;;5090278;28;20389;-72
2022/05/12 04:47:19;;;;;;;0.40;0.20;;;20.10;60.00;;;;;;5090436;28;20412;-69
2022/05/12 04:49:45;;;;;;;0.40;0.20;;;20.20;59.90;;;;;;5089538;28;20395;-69
2022/05/12 04:52:10;;;;;;;0.40;0.30;;;20.20;59.90;;;;;;5090587;28;20386;-70
2022/05/12 04:54:38;;;;;;;0.60;0.50;;;20.20;60.00;;;;;;5089644;28;20432;-70
2022/05/12 04:57:04;;;;;;;0.40;0.20;;;20.20;60.90;;;;;;5089693;28;20397;-68
2022/05/12 04:59:29;;;;;;;0.45;0.35;;;20.20;60.10;;;;;;5089010;28;20394;-68
2022/05/12 05:01:55;;;;;;;0.40;0.20;;;20.20;60.00;;;;;;5089898;28;20728;-70
2022/05/12 05:04:21;;;;;;;0.40;0.40;;;20.30;60.00;;;;;;5090336;28;20386;-71
2022/05/12 05:06:46;;;;;;;0.40;0.30;;;20.30;61.00;;;;;;5089676;28;20386;-68
2022/05/12 05:09:12;;;;;;;0.50;0.40;;;20.30;61.00;;;;;;5090174;28;20409;-70
2022/05/12 05:11:38;;;;;;;0.40;0.30;;;20.30;60.70;;;;;;5089420;28;20397;-71
2022/05/12 05:14:04;;;;;;;0.40;0.40;;;20.40;60.90;;;;;;5090177;28;20458;-71
2022/05/12 05:16:30;;;;;;;0.40;0.40;;;20.40;61.20;;;;;;5089300;28;20485;-70
2022/05/12 05:18:56;;;;;;;0.40;0.20;;;20.40;61.20;;;;;;5088658;28;20845;-70
2022/05/12 05:21:22;;;;;;;0.50;0.40;;;20.40;61.70;;;;;;5089216;28;20759;-71
2022/05/12 05:23:47;;;;;;;0.40;0.30;;;20.40;61.80;;;;;;5089656;28;20386;-71
2022/05/12 05:26:13;;;;;;;0.40;0.30;;;20.40;62.70;;;;;;5089055;28;20386;-69
2022/05/12 05:28:39;;;;;;;0.40;0.30;;;20.30;62.60;;;;;;5088228;28;20409;-71
2022/05/12 05:31:05;;;;;;;0.40;0.20;;;20.40;62.80;;;;;;5090176;28;20487;-70
2022/05/12 05:33:31;;;;;;;0.40;0.30;;;20.40;63.20;;;;;;5071475;28;20457;-70
2022/05/12 05:35:57;;;;;;;0.80;0.80;;;20.50;62.80;;;;;;5090336;28;20956;-72
2022/05/12 05:38:23;;;;;;;0.40;0.30;;;20.60;63.10;;;;;;5090129;28;20375;-71
2022/05/12 05:40:49;;;;;;;0.40;0.27;;;20.50;63.70;;;;;;5089981;28;20378;-72
2022/05/12 05:43:15;;;;;;;0.40;0.20;;;20.40;64.40;;;;;;5089977;28;20969;-71
2022/05/12 05:45:41;;;;;;;0.40;0.30;;;20.30;63.60;;;;;;5090601;28;20757;-71
2022/05/12 05:48:07;;;;;;;0.40;0.30;;;20.40;63.70;;;;;;5093935;28;20409;-71
2022/05/12 05:53:25;;;;;;;0.40;0.30;;;20.60;64.10;;;;;;5093191;28;20409;-72
2022/05/12 05:55:53;;;;;;;0.90;0.90;;;20.50;63.90;;;;;;5092837;28;20409;-72
2022/05/12 05:58:19;;;;;;;0.40;0.20;;;20.50;64.40;;;;;;5093078;28;20446;-70
2022/05/12 06:00:45;;;;;;;0.47;0.32;;;20.60;63.90;;;;;;5092091;28;20466;-71
2022/05/12 06:03:12;;;;;;;0.40;0.30;;;20.60;63.10;;;;;;5093290;28;20455;-71
2022/05/12 06:05:38;;;;;;;0.50;0.50;;;20.50;63.80;;;;;;5091681;28;20397;-71
2022/05/12 06:08:05;;;;;;;0.40;0.30;;;20.50;64.20;;;;;;5091846;28;20719;-71
2022/05/12 06:10:31;;;;;;;0.40;0.20;;;20.50;63.40;;;;;;5091178;28;20394;-71
2022/05/12 06:12:56;;;;;;;0.50;0.40;;;20.60;64.50;;;;;;5093623;28;20390;-72
2022/05/12 06:15:24;;;;;;;0.50;0.40;;;20.60;64.00;;;;;;5093532;28;20492;-71
2022/05/12 06:17:50;;;;;;;0.40;0.30;;;20.60;64.20;;;;;;5091864;28;20398;-71
2022/05/12 06:20:16;;;;;;;0.40;0.40;;;20.50;64.90;;;;;;5092621;28;20378;-70
2022/05/12 06:22:43;;;;;;;0.40;0.30;;;20.50;64.80;;;;;;5091718;28;20416;-71
2022/05/12 06:25:11;;;;;;;0.40;0.30;;;20.50;65.30;;;;;;5091997;28;20390;-70
2022/05/12 06:27:37;;;;;;;0.40;0.40;;;20.60;65.20;;;;;;5092113;28;20805;-71
2022/05/12 06:30:05;;;;;;;0.50;0.50;;;20.60;65.00;;;;;;5093219;28;20412;-71
2022/05/12 06:32:31;;;;;;;0.40;0.30;;;20.60;65.90;;;;;;5086780;28;20808;-70
2022/05/12 06:34:57;;;;;;;0.40;0.40;;;20.60;65.80;;;;;;5082607;28;20391;-72
2022/05/12 06:37:23;;;;;;;0.40;0.20;;;20.70;66.30;;;;;;5073181;28;20867;-71
2022/05/12 06:39:48;;;;;;;0.40;0.20;;;20.70;65.80;;;;;;5071619;28;20395;-72
2022/05/12 06:42:14;;;;;;;0.40;0.40;;;20.70;66.50;;;;;;5072456;28;20391;-71
2022/05/12 06:44:42;;;;;;;0.40;0.30;;;20.70;67.30;;;;;;5071751;28;20848;-71
2022/05/12 06:47:09;;;;;;;0.70;0.70;;;20.70;66.00;;;;;;5072413;28;20391;-70
2022/05/12 06:49:35;;;;;;;0.40;0.30;;;20.70;66.90;;;;;;5071731;28;20383;-71
2022/05/12 06:52:03;;;;;;;0.40;0.30;;;20.70;67.10;;;;;;5072638;28;20475;-71
2022/05/12 06:54:29;;;;;;;0.40;0.25;;;20.80;67.80;;;;;;5071896;28;20378;-71
2022/05/12 06:56:55;;;;;;;0.40;0.20;;;20.70;67.70;;;;;;5070890;28;20376;-71
2022/05/12 06:59:20;;;;;;;0.40;0.20;;;20.80;67.30;;;;;;5072336;28;20714;-71
2022/05/12 07:01:46;;;;;;;0.40;0.30;;;20.90;68.60;;;;;;5071859;28;20380;-71
2022/05/12 07:04:12;;;;;;;1.50;1.10;;;20.90;68.00;;;;;;5072064;28;20486;-72
2022/05/12 07:06:37;;;;;;;0.40;0.20;;;20.90;67.60;;;;;;5071166;28;20380;-71
2022/05/12 07:09:03;;;;;;;0.40;0.20;;;20.90;67.30;;;;;;5072079;28;20484;-69
2022/05/12 07:11:29;;;;;;;0.40;0.30;;;20.90;67.80;;;;;;5073056;28;20411;-71
2022/05/12 07:13:54;;;;;;;0.40;0.30;;;20.90;68.20;;;;;;5079679;28;20415;-70
2022/05/12 07:16:20;;;;;;;0.40;0.30;;;20.90;69.00;;;;;;5079918;28;20453;-71
2022/05/12 07:18:47;;;;;;;0.40;0.30;;;20.90;69.00;;;;;;5079596;28;20403;-70
2022/05/12 07:26:42;;;;;;;0.40;0.40;;;21.00;69.30;;;;;;5089378;28;20462;-70
2022/05/12 07:29:11;;;;;;;0.50;0.40;;;21.00;69.40;;;;;;5088686;28;20501;-69
2022/05/12 07:31:38;;;;;;;0.40;0.40;;;21.00;68.60;;;;;;5080061;28;20407;-70
2022/05/12 07:34:04;;;;;;;0.40;0.20;;;21.00;68.80;;;;;;5078970;28;20818;-70
2022/05/12 07:36:39;;;;;;;0.40;0.30;;;20.90;69.90;;;;;;5081004;28;20768;-70
2022/05/12 07:39:05;;;;;;;0.40;0.30;;;21.00;69.50;;;;;;5075920;28;20400;-70
2022/05/12 07:41:32;;;;;;;0.40;0.20;;;20.90;69.10;;;;;;5088731;28;20481;-71
2022/05/12 07:43:58;;;;;;;0.40;0.30;;;20.90;68.20;;;;;;5091440;28;20420;-69
2022/05/12 07:46:26;;;;;;;0.40;0.20;;;21.00;69.20;;;;;;5091408;28;20823;-70
2022/05/12 07:48:52;;;;;;;0.40;0.20;;;20.80;69.20;;;;;;5090410;28;20410;-70
2022/05/12 07:51:18;;;;;;;0.50;0.50;;;20.80;69.30;;;;;;5087081;28;20459;-67
2022/05/12 07:53:48;;;;;;;0.40;0.30;;;20.70;68.80;;;;;;5073160;28;20937;-69
2022/05/12 07:56:22;;;;;;;0.50;0.50;;;20.60;69.20;;;;;;5061930;28;20899;-70
2022/05/12 07:58:48;;;;;;;0.40;0.30;;;20.60;70.00;;;;;;5073599;28;20404;-69
2022/05/12 08:01:18;;;;;;;0.43;0.43;;;20.70;70.30;;;;;;5087632;28;20925;-68
2022/05/12 08:03:44;;;;;;;3.40;1.10;;;20.60;71.10;;;;;;5079753;28;20394;-68
2022/05/12 08:06:12;;;;;;;0.40;0.20;;;20.70;70.10;;;;;;5087231;28;20392;-68
2022/05/12 08:08:38;;;;;;;0.40;0.20;;;20.60;69.10;;;;;;5081719;28;20503;-70
2022/05/12 08:11:05;;;;;;;1.90;0.80;;;20.70;69.60;;;;;;5086669;28;20477;-69
2022/05/12 08:13:32;;;;;;;0.40;0.20;;;20.80;70.00;;;;;;5079752;28;20441;-69
2022/05/12 08:15:58;;;;;;;0.40;0.20;;;20.80;70.80;;;;;;5082524;28;20391;-68
2022/05/12 08:18:26;;;;;;;0.50;0.50;;;20.90;70.50;;;;;;5088035;28;20393;-70
2022/05/12 08:20:52;;;;;;;0.60;0.40;;;20.90;70.60;;;;;;5078653;28;20565;-67
2022/05/12 08:23:19;;;;;;;0.40;0.20;;;20.90;69.10;;;;;;5087428;28;20394;-70
2022/05/12 08:25:45;;;;;;;1.10;0.90;;;20.90;70.30;;;;;;5081601;28;20421;-70
2022/05/12 08:28:18;;;;;;;0.40;0.30;;;21.00;70.80;;;;;;5063945;28;20429;-69
2022/05/12 08:30:46;;;;;;;0.68;0.30;;;21.10;68.60;;;;;;5077989;28;20490;-69
2022/05/12 08:33:13;;;;;;;0.40;0.40;;;21.10;68.90;;;;;;5090214;28;20405;-69
2022/05/12 08:35:39;;;;;;;0.40;0.20;;;21.10;69.70;;;;;;5083258;28;20443;-69
2022/05/12 08:38:05;;;;;;;0.40;0.30;;;21.10;69.50;;;;;;5079564;28;20430;-69
2022/05/12 08:40:37;;;;;;;0.40;0.20;;;21.20;69.80;;;;;;5090665;28;20425;-69
2022/05/12 08:43:14;;;;;;;0.40;0.20;;;21.30;69.10;;;;;;5089021;28;20412;-68
2022/05/12 08:45:40;;;;;;;2.80;0.60;;;21.40;69.10;;;;;;5079274;28;20906;-70
2022/05/12 08:48:08;;;;;;;7.50;0.60;;;21.40;69.60;;;;;;5089458;28;20833;-68
2022/05/12 08:50:36;;;;;;;1.40;1.00;;;21.50;68.80;;;;;;5088776;28;20743;-69
2022/05/12 08:53:09;;;;;;;0.45;0.43;;;21.60;68.40;;;;;;5082227;28;20394;-69
2022/05/12 08:55:51;;;;;;;0.50;0.40;;;21.80;69.20;;;;;;5089645;28;20389;-70
2022/05/12 08:58:22;;;;;;;0.40;0.20;;;21.80;68.80;;;;;;5086095;28;20401;-70
2022/05/12 09:00:51;;;;;;;0.40;0.20;;;21.60;68.90;;;;;;5085384;28;20455;-68
2022/05/12 09:03:41;;;;;;;0.40;0.20;;;21.60;68.50;;;;;;5082937;28;20386;-69
2022/05/12 09:06:13;;;;;;;0.40;0.30;;;21.60;70.00;;;;;;5090029;28;20803;-68
2022/05/12 09:08:48;;;;;;;0.40;0.20;;;21.80;69.10;;;;;;5089801;28;20497;-69
2022/05/12 09:11:41;;;;;;;0.80;0.60;;;21.90;68.50;;;;;;5080571;28;20406;-69
2022/05/12 09:14:15;;;;;;;0.40;0.20;;;21.90;68.90;;;;;;5078340;28;20898;-69
2022/05/12 09:16:41;;;;;;;0.40;0.20;;;21.90;70.10;;;;;;5081093;28;20741;-69
2022/05/12 09:19:06;;;;;;;0.40;0.20;;;21.90;69.40;;;;;;5076190;28;20390;-69
2022/05/12 09:21:36;;;;;;;0.40;0.40;;;22.00;70.00;;;;;;5083122;28;20801;-69
2022/05/12 09:24:04;;;;;;;0.40;0.30;;;22.10;69.40;;;;;;5074545;28;20498;-69
2022/05/12 09:26:40;;;;;;;0.50;0.50;;;22.00;70.10;;;;;;5084440;28;20466;-69
2022/05/12 09:29:31;;;;;;;0.60;0.60;;;22.10;71.30;;;;;;5086640;28;20463;-70
2022/05/12 09:32:03;;;;;;;0.40;0.20;;;22.10;70.50;;;;;;5091908;28;20488;-69
2022/05/12 09:34:34;;;;;;;0.40;0.40;;;22.20;70.20;;;;;;5092104;28;20523;-69
2022/05/12 09:37:20;;;;;;;0.40;0.30;;;22.20;71.30;;;;;;5090354;28;20741;-69
2022/05/12 09:39:49;;;;;;;0.40;0.30;;;22.30;70.20;;;;;;5092651;28;20374;-69
2022/05/12 09:42:38;;;;;;;0.40;0.30;;;22.30;70.20;;;;;;5093644;28;20418;-69
2022/05/12 09:45:27;;;;;;;0.40;0.30;;;22.60;70.80;;;;;;5093623;28;20465;-69
2022/05/12 09:48:09;;;;;;;0.50;0.40;;;22.50;71.50;;;;;;5092488;28;20855;-69
2022/05/12 09:50:35;;;;;;;0.43;0.32;;;22.70;71.00;;;;;;5093867;28;20417;-69
2022/05/12 09:53:02;;;;;;;1.58;0.70;;;22.60;71.20;;;;;;5092933;28;20394;-69
2022/05/12 09:55:32;;;;;;;0.40;0.20;;;22.70;71.10;;;;;;5093373;28;20385;-70
2022/05/12 09:58:02;;;;;;;0.40;0.20;;;22.60;71.30;;;;;;5072892;28;20441;-69
2022/05/12 10:00:55;;;;;;;0.40;0.20;;;22.90;72.00;;;;;;5073602;28;20383;-68
2022/05/12 10:09:13;;;;;;;0.40;0.23;;;23.20;71.90;;;;;;5092368;28;20425;-69
2022/05/12 10:11:47;;;;;;;1.30;0.98;;;23.20;70.70;;;;;;5093259;28;20392;-69
2022/05/12 10:14:42;;;;;;;0.40;0.30;;;23.30;70.90;;;;;;5093608;28;20393;-68
2022/05/12 10:17:35;;;;;;;0.50;0.40;;;23.40;70.50;;;;;;5083540;28;20412;-68
2022/05/12 10:20:14;;;;;;;0.40;0.38;;;23.40;71.20;;;;;;5092532;28;20370;-70
2022/05/12 10:22:46;;;;;;;0.40;0.40;;;23.50;71.00;;;;;;5093022;28;20753;-71
2022/05/12 10:25:26;;;;;;;0.40;0.20;;;23.70;70.10;;;;;;5091650;28;20401;-69
2022/05/12 10:28:02;;;;;;;1.60;0.70;;;23.70;68.90;;;;;;5084663;28;20403;-69
2022/05/12 10:30:46;;;;;;;0.40;0.20;;;23.80;69.40;;;;;;5080072;28;20490;-69
2022/05/12 10:33:29;;;;;;;5.10;1.00;;;23.90;69.20;;;;;;5092845;28;20405;-69
2022/05/12 10:36:18;;;;;;;0.40;0.30;;;23.90;69.20;;;;;;5092272;28;20382;-70
2022/05/12 10:38:49;;;;;;;0.40;0.20;;;23.70;69.00;;;;;;5092125;28;20504;-69
2022/05/12 10:41:37;;;;;;;0.50;0.40;;;23.80;69.40;;;;;;5092629;28;20874;-69
2022/05/12 10:44:14;;;;;;;0.40;0.20;;;23.70;69.50;;;;;;5091100;28;21036;-68
2022/05/12 10:47:11;;;;;;;0.80;0.60;;;23.60;71.80;;;;;;5092645;28;20519;-68
2022/05/12 10:49:47;;;;;;;0.75;0.75;;;23.70;71.40;;;;;;5075546;28;20918;-68
2022/05/12 10:52:43;;;;;;;0.60;0.50;;;23.50;71.30;;;;;;5072589;28;20375;-68
2022/05/12 10:55:39;;;;;;;0.40;0.20;;;23.50;71.70;;;;;;5072151;28;20380;-68
2022/05/12 10:58:37;;;;;;;0.40;0.30;;;23.50;70.80;;;;;;5082034;28;20394;-68
2022/05/12 11:01:11;;;;;;;0.50;0.40;;;23.60;71.20;;;;;;5075769;28;20860;-68
2022/05/12 11:03:39;;;;;;;0.70;0.60;;;23.30;70.50;;;;;;5082204;28;20856;-68
2022/05/12 11:06:10;;;;;;;0.80;0.50;;;23.30;71.90;;;;;;5091537;28;20425;-69
2022/05/12 11:08:49;;;;;;;0.40;0.40;;;23.40;70.70;;;;;;5092030;28;20501;-68
2022/05/12 11:11:25;;;;;;;0.40;0.40;;;23.50;71.10;;;;;;5092162;28;20408;-68
2022/05/12 11:14:03;;;;;;;0.50;0.40;;;23.70;69.80;;;;;;5076650;28;20770;-68
2022/05/12 11:16:39;;;;;;;0.40;0.30;;;23.80;69.00;;;;;;5085882;28;20382;-68
2022/05/12 11:19:15;;;;;;;0.40;0.30;;;23.80;71.50;;;;;;5089246;28;20382;-68
2022/05/12 11:22:21;;;;;;;0.40;0.20;;;23.70;67.80;;;;;;5092257;28;20386;-69
2022/05/12 11:24:50;;;;;;;0.50;0.40;;;23.60;67.60;;;;;;5042884;28;20466;-68
2022/05/12 11:27:46;;;;;;;0.40;0.30;;;23.50;69.00;;;;;;5071911;28;20915;-68
2022/05/12 11:30:36;;;;;;;0.60;0.50;;;23.80;68.20;;;;;;5091933;28;20735;-68
2022/05/12 11:33:30;;;;;;;0.40;0.20;;;24.00;67.20;;;;;;5086121;28;20388;-69
2022/05/12 11:35:56;;;;;;;0.40;0.30;;;24.30;68.50;;;;;;5075343;28;20412;-69
2022/05/12 11:38:44;;;;;;;0.40;0.20;;;24.30;67.60;;;;;;5073278;28;20419;-68
2022/05/12 11:41:33;;;;;;;1.08;0.43;;;24.20;67.10;;;;;;5070599;28;20445;-68
2022/05/12 11:44:29;;;;;;;0.40;0.30;;;24.10;67.20;;;;;;5061700;28;20582;-68
2022/05/12 11:47:15;;;;;;;0.40;0.30;;;24.00;69.00;;;;;;5091043;28;20400;-68
2022/05/12 11:50:18;;;;;;;0.40;0.20;;;24.20;69.30;;;;;;5091622;28;20402;-70
2022/05/12 11:53:13;;;;;;;0.60;0.60;;;24.40;66.80;;;;;;5091612;28;20393;-68
2022/05/12 11:55:56;;;;;;;0.40;0.20;;;24.70;65.60;;;;;;5091668;28;20451;-68
2022/05/12 11:59:10;;;;;;;0.40;0.30;;;24.70;66.00;;;;;;5091549;28;20722;-68
2022/05/12 12:01:39;;;;;;;0.43;0.25;;;24.70;66.40;;;;;;5083517;28;20394;-68
2022/05/12 12:04:05;;;;;;;0.40;0.30;;;25.00;67.60;;;;;;5090313;28;20406;-69
2022/05/12 12:06:40;;;;;;;0.63;0.38;;;25.90;63.90;;;;;;5091476;28;20413;-67
2022/05/12 12:09:36;;;;;;;0.50;0.50;;;26.90;60.10;;;;;;5090327;28;21030;-68
2022/05/12 12:12:08;;;;;;;0.40;0.30;;;26.70;60.30;;;;;;5090424;28;20443;-68
2022/05/12 12:14:42;;;;;;;0.40;0.20;;;26.30;59.80;;;;;;5091510;28;20374;-68
2022/05/12 12:17:13;;;;;;;0.40;0.30;;;25.80;61.80;;;;;;5090477;28;20385;-68
2022/05/12 12:19:50;;;;;;;0.68;0.68;;;25.90;62.90;;;;;;5088634;28;20394;-68
2022/05/12 12:22:35;;;;;;;0.40;0.20;;;25.70;64.40;;;;;;5080541;28;20399;-68
2022/05/12 12:25:09;;;;;;;0.40;0.30;;;25.40;64.60;;;;;;5077378;28;20886;-69
2022/05/12 12:27:53;;;;;;;2.15;2.05;;;25.50;63.70;;;;;;5082559;28;20405;-69
2022/05/12 12:30:31;;;;;;;0.40;0.40;;;25.90;64.60;;;;;;5079929;28;20501;-69
2022/05/12 12:33:15;;;;;;;0.60;0.60;;;26.10;63.80;;;;;;5084366;28;20390;-68
2022/05/12 12:35:56;;;;;;;0.40;0.20;;;25.70;62.60;;;;;;5082570;28;20458;-69
2022/05/12 12:38:44;;;;;;;0.40;0.30;;;25.80;64.70;;;;;;5080806;28;20397;-70
2022/05/12 12:41:15;;;;;;;0.40;0.30;;;25.70;66.20;;;;;;5076845;28;20436;-69
2022/05/12 12:43:48;;;;;;;1.20;0.60;;;25.50;65.30;;;;;;5085207;28;20766;-70
2022/05/12 12:46:35;;;;;;;1.30;1.20;;;26.10;63.40;;;;;;5080649;28;20461;-70
2022/05/12 12:49:13;;;;;;;0.40;0.30;;;26.40;62.50;;;;;;5081616;28;20917;-71
2022/05/12 12:51:40;;;;;;;0.40;0.30;;;27.20;61.20;;;;;;5080897;28;20409;-71
2022/05/12 12:57:44;;;;;;;0.40;0.20;;;27.80;58.40;;;;;;5086833;28;20456;-70
2022/05/12 13:00:33;;;;;;;0.40;0.20;;;27.20;61.00;;;;;;5074867;28;20489;-71
2022/05/12 13:03:19;;;;;;;0.40;0.30;;;27.50;60.30;;;;;;5089488;28;20389;-70
2022/05/12 13:05:46;;;;;;;0.40;0.30;;;27.10;59.70;;;;;;5091479;28;20409;-70
2022/05/12 13:08:28;;;;;;;0.70;0.70;;;26.80;59.70;;;;;;5090648;28;20429;-70
2022/05/12 13:11:03;;;;;;;0.40;0.30;;;27.30;60.00;;;;;;5091324;28;20467;-72
2022/05/12 13:13:29;;;;;;;0.40;0.30;;;27.10;59.00;;;;;;5089961;28;20428;-71
2022/05/12 13:15:58;;;;;;;0.40;0.20;;;27.00;61.00;;;;;;5078486;28;20494;-70
2022/05/12 13:18:32;;;;;;;0.60;0.40;;;27.10;59.60;;;;;;5081220;28;20400;-70
2022/05/12 13:21:00;;;;;;;0.40;0.30;;;26.90;58.00;;;;;;5091377;28;20435;-70
2022/05/12 13:23:30;;;;;;;0.40;0.30;;;26.70;59.70;;;;;;5086399;28;20438;-71
2022/05/12 13:26:00;;;;;;;0.40;0.30;;;26.60;60.90;;;;;;5087693;28;20485;-71
2022/05/12 13:28:28;;;;;;;0.80;0.60;;;26.80;59.90;;;;;;5088861;28;20410;-70